Time;durP1;ratioP1;P1;durP2;ratioP2;P2;SDS_P1;SDS_P2;PMS_P1;PMS_P2;Temp;Humidity;BMP_temperature;BMP_pressure;BME280_temperature;BME280_humidity;BME280_pressure;Samples;Min_cycle;Max_cycle;Signal;HPM_P1;HPM_P2
2022/07/27 00:02:03;;;;;;;1.80;1.70;;;22.50;99.90;;;;;;5007670;28;20228;-75
2022/07/27 00:04:30;;;;;;;1.92;1.73;;;22.50;99.90;;;;;;5011491;28;20204;-76
2022/07/27 00:06:57;;;;;;;1.88;1.77;;;22.50;99.90;;;;;;5007916;28;20655;-75
2022/07/27 00:09:24;;;;;;;1.50;1.40;;;22.50;99.90;;;;;;5010456;28;20270;-74
2022/07/27 00:11:53;;;;;;;1.95;1.85;;;22.50;99.90;;;;;;5012139;28;20278;-75
2022/07/27 00:14:20;;;;;;;1.80;1.70;;;22.50;99.90;;;;;;5016054;28;20207;-74
2022/07/27 00:16:47;;;;;;;1.65;1.55;;;22.50;99.90;;;;;;5009824;28;20196;-77
2022/07/27 00:19:14;;;;;;;1.80;1.70;;;22.50;99.90;;;;;;5011701;28;20208;-73
2022/07/27 00:21:41;;;;;;;1.80;1.70;;;22.40;99.90;;;;;;5010504;28;20196;-75
2022/07/27 00:24:08;;;;;;;1.92;1.83;;;22.40;99.90;;;;;;5010784;28;20204;-74
2022/07/27 00:26:36;;;;;;;2.92;1.90;;;22.50;99.90;;;;;;5012423;28;20679;-74
2022/07/27 00:29:04;;;;;;;1.83;1.70;;;22.40;99.90;;;;;;5008798;28;20283;-75
2022/07/27 00:31:31;;;;;;;1.70;1.60;;;22.40;99.90;;;;;;5011123;28;20207;-73
2022/07/27 00:33:58;;;;;;;1.88;1.77;;;22.40;99.90;;;;;;5009683;28;20225;-75
2022/07/27 00:36:25;;;;;;;1.77;1.67;;;22.40;99.90;;;;;;5008886;28;20259;-78
2022/07/27 00:38:53;;;;;;;1.70;1.60;;;22.30;99.90;;;;;;5011297;28;20212;-76
2022/07/27 00:41:20;;;;;;;1.75;1.65;;;22.20;99.90;;;;;;5015000;28;20203;-74
2022/07/27 00:43:52;;;;;;;2.08;1.98;;;22.00;99.90;;;;;;5010803;28;20236;-76
2022/07/27 00:46:20;;;;;;;1.80;1.70;;;22.00;99.90;;;;;;5010263;28;20228;-74
2022/07/27 00:48:47;;;;;;;1.52;1.42;;;22.00;99.90;;;;;;5008176;28;20275;-75
2022/07/27 00:51:16;;;;;;;1.90;1.80;;;22.00;99.90;;;;;;5008742;28;20271;-75
2022/07/27 00:53:43;;;;;;;2.47;1.80;;;22.10;99.90;;;;;;5009699;28;20220;-74
2022/07/27 00:56:11;;;;;;;2.03;1.92;;;22.20;99.90;;;;;;5011060;28;20196;-72
2022/07/27 00:58:38;;;;;;;2.05;1.95;;;22.20;99.90;;;;;;5010721;28;20221;-77
2022/07/27 01:01:06;;;;;;;2.03;1.90;;;22.10;99.90;;;;;;5008919;28;20824;-75
2022/07/27 01:03:34;;;;;;;1.80;1.70;;;22.00;99.90;;;;;;5014280;28;20227;-75
2022/07/27 01:06:01;;;;;;;1.80;1.63;;;22.10;99.90;;;;;;5009780;28;20551;-75
2022/07/27 01:08:29;;;;;;;2.17;2.08;;;22.10;99.90;;;;;;5009924;28;20283;-75
2022/07/27 01:10:59;;;;;;;1.98;1.88;;;22.10;99.90;;;;;;5004187;28;20232;-74
2022/07/27 01:13:27;;;;;;;1.70;1.60;;;22.20;99.90;;;;;;5010243;28;20235;-75
2022/07/27 01:15:55;;;;;;;1.73;1.63;;;22.10;99.90;;;;;;5009934;28;20215;-74
2022/07/27 01:18:31;;;;;;;1.80;1.70;;;22.20;99.90;;;;;;5009065;28;20220;-75
2022/07/27 01:21:01;;;;;;;1.88;1.77;;;22.20;99.90;;;;;;5010098;28;20196;-75
2022/07/27 01:23:32;;;;;;;1.85;1.75;;;22.10;99.90;;;;;;5013201;28;20230;-74
2022/07/27 01:25:59;;;;;;;1.58;1.48;;;22.10;99.90;;;;;;5009456;28;20591;-77
2022/07/27 01:28:27;;;;;;;1.90;1.80;;;22.10;99.90;;;;;;5014545;28;20216;-76
2022/07/27 01:30:55;;;;;;;2.25;1.80;;;22.10;99.90;;;;;;5014039;28;20220;-75
2022/07/27 01:33:25;;;;;;;2.67;2.00;;;22.10;99.90;;;;;;5018219;28;20626;-76
2022/07/27 01:35:54;;;;;;;2.17;1.98;;;22.30;99.90;;;;;;5016216;28;20223;-76
2022/07/27 01:38:22;;;;;;;2.20;2.00;;;22.40;99.90;;;;;;5015005;28;20220;-74
2022/07/27 01:40:52;;;;;;;2.53;2.05;;;22.60;99.90;;;;;;5015905;28;20276;-73
2022/07/27 01:43:20;;;;;;;2.03;1.83;;;22.70;99.90;;;;;;5018051;28;20228;-75
2022/07/27 01:45:47;;;;;;;2.20;2.00;;;22.70;99.90;;;;;;5018763;28;20200;-74
2022/07/27 01:48:14;;;;;;;2.60;1.90;;;22.70;99.90;;;;;;5025895;28;20238;-75
2022/07/27 01:50:41;;;;;;;1.98;1.67;;;22.70;99.90;;;;;;5014580;28;20212;-75
2022/07/27 01:53:08;;;;;;;2.28;2.08;;;22.70;99.90;;;;;;5022099;28;20649;-74
2022/07/27 01:55:35;;;;;;;2.00;1.90;;;22.70;99.90;;;;;;5020623;28;20196;-75
2022/07/27 01:58:06;;;;;;;2.80;2.00;;;22.70;99.90;;;;;;5016834;28;20227;-78
2022/07/27 02:00:33;;;;;;;2.05;1.85;;;22.70;99.90;;;;;;5014242;28;20256;-76
2022/07/27 02:03:00;;;;;;;1.88;1.77;;;22.80;99.90;;;;;;5016772;28;20235;-76
2022/07/27 02:05:28;;;;;;;2.42;1.90;;;22.80;99.90;;;;;;5017622;28;20196;-75
2022/07/27 02:07:55;;;;;;;4.15;1.85;;;22.80;99.90;;;;;;5014015;28;20228;-75
2022/07/27 02:10:22;;;;;;;2.50;1.90;;;22.80;99.90;;;;;;5015804;28;20228;-75
2022/07/27 02:12:48;;;;;;;1.98;1.88;;;22.70;99.90;;;;;;5015803;28;20286;-76
2022/07/27 02:15:22;;;;;;;1.70;1.60;;;22.70;99.90;;;;;;5017571;28;20231;-76
2022/07/27 02:17:49;;;;;;;2.10;1.88;;;22.70;99.90;;;;;;5012508;28;20216;-76
2022/07/27 02:20:19;;;;;;;1.73;1.63;;;22.70;99.90;;;;;;5014736;28;20215;-75
2022/07/27 02:22:46;;;;;;;1.90;1.80;;;22.70;99.90;;;;;;5012769;28;20227;-75
2022/07/27 02:25:15;;;;;;;1.77;1.67;;;22.70;99.90;;;;;;5013192;28;20199;-78
2022/07/27 02:27:43;;;;;;;2.15;1.88;;;22.70;99.90;;;;;;5012541;28;20582;-76
2022/07/27 02:30:12;;;;;;;1.60;1.50;;;22.70;99.90;;;;;;5012128;28;20223;-77
2022/07/27 02:32:42;;;;;;;1.65;1.50;;;22.70;99.90;;;;;;5012926;28;20216;-76
2022/07/27 02:35:09;;;;;;;1.85;1.75;;;22.70;99.90;;;;;;5014383;28;20356;-75
2022/07/27 02:37:36;;;;;;;2.55;1.73;;;22.70;99.90;;;;;;5016756;28;20231;-77
2022/07/27 02:40:04;;;;;;;1.83;1.73;;;22.70;99.90;;;;;;5015755;28;20611;-75
2022/07/27 02:42:31;;;;;;;1.85;1.75;;;22.80;99.90;;;;;;5014379;28;20725;-75
2022/07/27 02:44:59;;;;;;;1.90;1.80;;;22.70;99.90;;;;;;5017646;28;20219;-76
2022/07/27 02:47:26;;;;;;;1.90;1.80;;;22.70;99.90;;;;;;5021703;28;20223;-76
2022/07/27 02:49:54;;;;;;;1.77;1.67;;;22.70;99.90;;;;;;5009876;28;20224;-77
2022/07/27 02:52:21;;;;;;;1.70;1.60;;;22.70;99.90;;;;;;5009844;28;20228;-75
2022/07/27 02:54:48;;;;;;;2.00;1.90;;;22.70;99.90;;;;;;5013819;28;20204;-75
2022/07/27 02:57:15;;;;;;;1.98;1.83;;;22.70;99.90;;;;;;5013965;28;20215;-75
2022/07/27 02:59:43;;;;;;;1.90;1.70;;;22.70;99.90;;;;;;5011609;28;20212;-75
2022/07/27 03:02:10;;;;;;;2.15;1.95;;;22.70;99.90;;;;;;5007693;28;20224;-76
2022/07/27 03:04:37;;;;;;;2.10;2.00;;;22.70;99.90;;;;;;5010805;28;20208;-76
2022/07/27 03:07:06;;;;;;;1.80;1.70;;;22.70;99.90;;;;;;5011086;28;20224;-77
2022/07/27 03:09:33;;;;;;;1.63;1.52;;;22.70;99.90;;;;;;5010572;28;20282;-75
2022/07/27 03:12:00;;;;;;;2.50;1.95;;;22.70;99.90;;;;;;5009265;28;20223;-75
2022/07/27 03:14:27;;;;;;;2.15;1.95;;;22.70;99.90;;;;;;5008884;28;20185;-76
2022/07/27 03:16:54;;;;;;;1.80;1.70;;;22.70;99.90;;;;;;5006093;28;20207;-76
2022/07/27 03:19:21;;;;;;;2.05;1.63;;;22.70;99.90;;;;;;5013143;28;20195;-76
2022/07/27 03:21:48;;;;;;;1.70;1.60;;;22.70;99.90;;;;;;5008038;28;20239;-77
2022/07/27 03:31:56;;;;;;;1.98;1.77;;;22.60;99.90;;;;;;5007980;28;20216;-76
2022/07/27 03:41:18;;;;;;;1.98;1.88;;;22.70;99.90;;;;;;5016769;28;20675;-75
2022/07/27 03:43:53;;;;;;;2.13;1.92;;;22.60;99.90;;;;;;5022551;28;20220;-75
2022/07/27 03:46:21;;;;;;;1.92;1.83;;;22.60;99.90;;;;;;5021925;28;20287;-74
2022/07/27 03:48:48;;;;;;;1.88;1.77;;;22.60;99.90;;;;;;5021183;28;20215;-75
2022/07/27 03:51:15;;;;;;;1.70;1.60;;;22.60;99.90;;;;;;5020352;28;20228;-78
2022/07/27 03:53:42;;;;;;;1.92;1.83;;;22.60;99.90;;;;;;5045333;22;20212;-76
2022/07/27 03:56:09;;;;;;;1.73;1.63;;;22.50;99.90;;;;;;5049349;28;20230;-76
2022/07/27 03:58:36;;;;;;;1.90;1.70;;;22.50;99.90;;;;;;5052444;28;20693;-77
2022/07/27 04:01:03;;;;;;;1.70;1.60;;;22.40;99.90;;;;;;5052349;28;20653;-76
2022/07/27 04:03:32;;;;;;;1.98;1.80;;;22.40;99.90;;;;;;5051717;28;20219;-77
2022/07/27 04:05:59;;;;;;;2.03;1.90;;;22.50;99.90;;;;;;5051311;28;20198;-76
2022/07/27 04:08:26;;;;;;;1.77;1.67;;;22.50;99.90;;;;;;5053688;28;20230;-77
2022/07/27 04:10:53;;;;;;;1.67;1.58;;;22.50;99.90;;;;;;5051888;28;20222;-76
2022/07/27 04:13:20;;;;;;;1.77;1.67;;;22.50;99.90;;;;;;5051869;28;20221;-75
2022/07/27 04:15:47;;;;;;;4.05;1.95;;;22.50;99.90;;;;;;5054405;28;20211;-77
2022/07/27 04:18:14;;;;;;;2.25;1.90;;;22.50;99.90;;;;;;5050587;28;20226;-76
2022/07/27 04:20:43;;;;;;;1.88;1.55;;;22.50;99.90;;;;;;5050397;28;20187;-75
2022/07/27 04:23:10;;;;;;;1.55;1.45;;;22.50;99.90;;;;;;5049401;28;20223;-75
2022/07/27 04:25:37;;;;;;;1.98;1.70;;;22.60;99.90;;;;;;5052378;28;20230;-76
2022/07/27 04:28:05;;;;;;;1.70;1.60;;;22.60;99.90;;;;;;5051903;28;20723;-76
2022/07/27 04:30:32;;;;;;;1.70;1.60;;;22.60;99.90;;;;;;5052381;28;20226;-76
2022/07/27 04:32:59;;;;;;;1.90;1.80;;;22.60;99.90;;;;;;5051390;28;20214;-77
2022/07/27 04:35:26;;;;;;;1.58;1.48;;;22.60;99.90;;;;;;5051656;28;20630;-77
2022/07/27 04:37:55;;;;;;;1.60;1.50;;;22.60;99.90;;;;;;5051475;28;20218;-76
2022/07/27 04:40:22;;;;;;;1.70;1.60;;;22.50;99.90;;;;;;5053301;28;20273;-76
2022/07/27 04:42:49;;;;;;;1.70;1.60;;;22.60;99.90;;;;;;5046464;28;20246;-76
2022/07/27 04:45:16;;;;;;;1.83;1.70;;;22.60;99.90;;;;;;5049567;28;20245;-77
2022/07/27 04:47:43;;;;;;;4.10;1.83;;;22.60;99.90;;;;;;5050357;28;20221;-76
2022/07/27 04:50:10;;;;;;;2.17;1.60;;;22.70;99.90;;;;;;5049721;28;20226;-76
2022/07/27 04:52:37;;;;;;;2.45;1.90;;;22.70;99.90;;;;;;5052617;28;20280;-77
2022/07/27 04:55:06;;;;;;;2.40;1.73;;;22.70;99.90;;;;;;5048203;28;20222;-76
2022/07/27 04:57:33;;;;;;;1.70;1.60;;;22.60;99.90;;;;;;5047809;28;20227;-77
2022/07/27 05:00:00;;;;;;;1.95;1.80;;;22.60;99.90;;;;;;5048587;28;20202;-76
2022/07/27 05:02:30;;;;;;;2.45;1.88;;;22.70;99.90;;;;;;5047711;28;20222;-76
2022/07/27 05:04:59;;;;;;;1.55;1.38;;;22.70;99.90;;;;;;5049419;28;20222;-75
2022/07/27 05:07:26;;;;;;;2.13;1.90;;;22.70;99.90;;;;;;5049435;28;20226;-75
2022/07/27 05:09:53;;;;;;;1.95;1.80;;;22.70;99.90;;;;;;5050067;28;20195;-77
2022/07/27 05:12:21;;;;;;;2.08;1.90;;;22.70;99.90;;;;;;5047604;28;20231;-76
2022/07/27 05:14:49;;;;;;;2.13;1.85;;;22.60;99.90;;;;;;5045880;28;20224;-76
2022/07/27 05:17:16;;;;;;;1.85;1.70;;;22.60;99.90;;;;;;5048555;28;20242;-77
2022/07/27 05:19:43;;;;;;;1.80;1.70;;;22.50;99.90;;;;;;5050303;28;20214;-76
2022/07/27 05:22:10;;;;;;;2.10;1.60;;;22.60;99.90;;;;;;5045141;28;20223;-78
2022/07/27 05:24:37;;;;;;;1.90;1.80;;;22.60;99.90;;;;;;5045687;28;20300;-77
2022/07/27 05:27:05;;;;;;;1.90;1.80;;;22.50;99.90;;;;;;5044007;28;20231;-77
2022/07/27 05:29:34;;;;;;;2.05;1.85;;;22.50;99.90;;;;;;5039858;28;20204;-76
2022/07/27 05:32:01;;;;;;;1.77;1.67;;;22.50;99.90;;;;;;5041983;28;20767;-76
2022/07/27 05:34:28;;;;;;;1.80;1.70;;;22.50;99.90;;;;;;5043009;28;20288;-77
2022/07/27 05:36:55;;;;;;;2.38;1.67;;;22.70;99.90;;;;;;5043908;28;20199;-77
2022/07/27 05:39:22;;;;;;;1.70;1.60;;;22.70;99.90;;;;;;5039290;28;20200;-76
2022/07/27 05:41:49;;;;;;;2.25;1.52;;;22.80;99.90;;;;;;5044113;28;20198;-77
2022/07/27 05:44:16;;;;;;;1.80;1.70;;;22.90;99.90;;;;;;5038446;28;20249;-77
2022/07/27 05:46:45;;;;;;;1.80;1.70;;;22.90;99.90;;;;;;5041036;28;20199;-75
2022/07/27 05:49:12;;;;;;;1.80;1.70;;;23.00;99.90;;;;;;5039608;28;20221;-76
2022/07/27 05:51:39;;;;;;;1.80;1.70;;;23.10;99.90;;;;;;5055658;28;20215;-77
2022/07/27 05:54:18;;;;;;;2.03;1.92;;;23.10;99.90;;;;;;5068661;28;20213;-79
2022/07/27 05:59:26;;;;;;;1.95;1.77;;;23.00;99.90;;;;;;5071396;28;20183;-79
2022/07/27 06:01:59;;;;;;;2.22;2.03;;;22.90;99.90;;;;;;5069845;28;20207;-79
2022/07/27 06:04:26;;;;;;;2.35;2.15;;;22.70;99.90;;;;;;5058506;28;20569;-77
2022/07/27 06:09:39;;;;;;;2.35;2.15;;;22.90;99.90;;;;;;5065946;28;20258;-76
2022/07/27 06:12:07;;;;;;;1.90;1.80;;;22.90;99.90;;;;;;5052450;28;20226;-78
2022/07/27 06:14:34;;;;;;;2.13;1.88;;;22.90;99.90;;;;;;5071076;28;20219;-78
2022/07/27 06:17:03;;;;;;;1.88;1.77;;;22.80;99.90;;;;;;5057301;28;20288;-79
2022/07/27 06:19:31;;;;;;;2.10;1.90;;;22.70;99.90;;;;;;5066202;28;20203;-79
2022/07/27 06:21:58;;;;;;;2.05;1.85;;;22.70;99.90;;;;;;5057753;28;20203;-77
2022/07/27 06:24:25;;;;;;;1.92;1.83;;;22.70;99.90;;;;;;5060946;28;20242;-78
2022/07/27 06:26:53;;;;;;;2.08;1.98;;;22.70;99.90;;;;;;5058506;28;20286;-77
2022/07/27 06:29:20;;;;;;;1.90;1.80;;;22.70;99.90;;;;;;5053464;28;20206;-77
2022/07/27 06:31:47;;;;;;;3.20;1.73;;;22.50;99.90;;;;;;5047410;28;20227;-77
2022/07/27 06:34:16;;;;;;;2.72;1.85;;;22.50;99.90;;;;;;5052450;28;20219;-77
2022/07/27 06:36:44;;;;;;;1.92;1.80;;;22.50;99.90;;;;;;5051508;28;20187;-77
2022/07/27 06:39:11;;;;;;;2.03;1.80;;;22.50;99.90;;;;;;5052618;28;20198;-77
2022/07/27 06:41:51;;;;;;;2.45;2.08;;;22.60;99.90;;;;;;5063129;28;20250;-79
2022/07/27 06:44:20;;;;;;;1.85;1.75;;;22.60;99.90;;;;;;5069824;28;20217;-78
2022/07/27 06:46:47;;;;;;;2.30;2.10;;;22.70;99.90;;;;;;5069050;28;20172;-80
2022/07/27 06:49:17;;;;;;;2.38;1.85;;;22.70;99.90;;;;;;5068120;28;20215;-78
2022/07/27 06:51:44;;;;;;;2.30;2.10;;;22.80;99.90;;;;;;5059711;28;20245;-77
2022/07/27 06:54:12;;;;;;;2.42;1.92;;;22.80;99.90;;;;;;5042256;28;20226;-79
2022/07/27 06:56:39;;;;;;;1.90;1.80;;;22.80;99.90;;;;;;5058610;28;20656;-77
2022/07/27 06:59:06;;;;;;;1.90;1.80;;;22.80;99.90;;;;;;5050823;28;20770;-77
2022/07/27 07:04:25;;;;;;;1.77;1.67;;;22.80;99.90;;;;;;5063128;28;20249;-78
2022/07/27 07:06:54;;;;;;;2.42;2.00;;;22.90;99.90;;;;;;5064423;28;20199;-78
2022/07/27 07:09:25;;;;;;;2.20;2.00;;;23.00;99.90;;;;;;5061783;28;20218;-77
2022/07/27 07:11:53;;;;;;;2.75;2.10;;;23.10;99.90;;;;;;5066563;28;20235;-79
2022/07/27 07:14:20;;;;;;;2.53;2.33;;;23.20;99.90;;;;;;5067430;28;20215;-77
2022/07/27 07:16:49;;;;;;;2.50;2.08;;;23.30;99.90;;;;;;5066758;28;20189;-76
2022/07/27 07:19:18;;;;;;;2.28;2.17;;;23.40;99.90;;;;;;5066409;28;20199;-78
2022/07/27 07:21:46;;;;;;;2.88;2.45;;;23.40;99.90;;;;;;5070237;28;20324;-78
2022/07/27 07:24:14;;;;;;;2.60;2.40;;;23.30;99.90;;;;;;5062173;28;20239;-78
2022/07/27 07:26:41;;;;;;;2.83;2.63;;;23.20;99.90;;;;;;5069117;28;20203;-77
2022/07/27 07:29:08;;;;;;;2.80;2.60;;;23.00;99.90;;;;;;5053968;28;20222;-78
2022/07/27 07:31:40;;;;;;;2.67;2.47;;;23.00;99.90;;;;;;5061816;28;20215;-79
2022/07/27 07:34:10;;;;;;;3.20;2.60;;;23.10;99.90;;;;;;5066049;28;20242;-79
2022/07/27 07:36:40;;;;;;;2.72;2.53;;;23.20;99.90;;;;;;5064160;28;20218;-79
2022/07/27 07:39:09;;;;;;;3.05;2.85;;;23.30;99.90;;;;;;5057617;28;20211;-80
2022/07/27 07:41:36;;;;;;;2.60;2.40;;;23.40;99.90;;;;;;5070343;28;20207;-79
2022/07/27 07:44:05;;;;;;;3.05;2.45;;;23.30;99.90;;;;;;5064141;28;20293;-77
2022/07/27 07:46:35;;;;;;;2.58;2.38;;;23.20;99.90;;;;;;5065599;28;20352;-79
2022/07/27 07:49:03;;;;;;;4.10;2.60;;;23.10;99.90;;;;;;5058707;28;20221;-81
2022/07/27 07:51:30;;;;;;;2.30;2.20;;;23.10;99.90;;;;;;5059749;28;20229;-79
2022/07/27 07:53:58;;;;;;;2.70;2.50;;;23.30;99.90;;;;;;5060925;28;20219;-77
2022/07/27 07:56:26;;;;;;;2.50;2.30;;;23.50;99.90;;;;;;5065655;28;20179;-78
2022/07/27 07:58:53;;;;;;;2.83;2.60;;;23.60;99.90;;;;;;5059012;28;20215;-77
2022/07/27 08:01:24;;;;;;;2.97;2.50;;;23.60;99.90;;;;;;5058340;28;20195;-78
2022/07/27 08:03:52;;;;;;;2.85;2.65;;;23.70;99.90;;;;;;5052165;28;20234;-77
2022/07/27 08:06:19;;;;;;;3.50;3.20;;;23.90;99.90;;;;;;5062415;28;20202;-77
2022/07/27 08:08:49;;;;;;;3.15;2.65;;;23.80;99.90;;;;;;5065464;28;20239;-78
2022/07/27 08:11:16;;;;;;;3.15;2.40;;;23.70;99.90;;;;;;5067981;28;20255;-80
2022/07/27 08:13:52;;;;;;;3.25;2.95;;;23.80;99.90;;;;;;5062848;28;20253;-77
2022/07/27 08:16:19;;;;;;;3.15;2.88;;;24.10;99.90;;;;;;5054289;28;20206;-78
2022/07/27 08:18:46;;;;;;;2.83;2.60;;;24.20;99.90;;;;;;5050445;28;20215;-78
2022/07/27 08:21:14;;;;;;;3.20;2.90;;;24.40;99.90;;;;;;5064175;28;20195;-78
2022/07/27 08:23:41;;;;;;;3.08;2.78;;;24.60;99.90;;;;;;5055304;28;20444;-76
2022/07/27 08:26:08;;;;;;;2.35;2.15;;;24.90;99.90;;;;;;5047116;28;20195;-74
2022/07/27 08:28:35;;;;;;;3.30;2.70;;;25.20;99.90;;;;;;5055081;28;20241;-77
2022/07/27 08:31:04;;;;;;;3.50;3.25;;;25.20;99.90;;;;;;5060809;28;20199;-78
2022/07/27 08:33:31;;;;;;;2.97;2.78;;;25.10;99.90;;;;;;5052299;28;20231;-76
2022/07/27 08:35:58;;;;;;;3.65;3.17;;;25.30;99.90;;;;;;5059255;28;20201;-75
2022/07/27 08:38:26;;;;;;;4.85;3.13;;;25.40;99.90;;;;;;5060829;28;20219;-76
2022/07/27 08:40:55;;;;;;;2.90;2.60;;;25.60;99.90;;;;;;5059407;28;20226;-77
2022/07/27 08:43:24;;;;;;;2.78;2.58;;;25.70;99.90;;;;;;5058739;28;20218;-77
2022/07/27 08:45:55;;;;;;;3.03;2.78;;;25.70;99.90;;;;;;5053503;28;20265;-78
2022/07/27 08:48:25;;;;;;;5.05;3.00;;;25.40;99.90;;;;;;5054591;28;20225;-76
2022/07/27 08:50:52;;;;;;;3.20;2.97;;;25.30;99.90;;;;;;5047106;28;20191;-77
2022/07/27 08:53:21;;;;;;;6.32;3.30;;;25.30;99.90;;;;;;5047921;28;20219;-77
2022/07/27 08:55:49;;;;;;;4.45;2.70;;;25.20;99.90;;;;;;5042191;28;20227;-76
2022/07/27 08:58:16;;;;;;;3.45;3.15;;;25.50;99.90;;;;;;5048484;28;20249;-77
2022/07/27 09:00:46;;;;;;;3.10;2.90;;;25.70;99.90;;;;;;5043119;28;20210;-77
2022/07/27 09:03:14;;;;;;;3.58;2.83;;;25.90;99.90;;;;;;5045415;28;20227;-78
2022/07/27 09:05:44;;;;;;;3.17;2.50;;;26.10;99.90;;;;;;5043520;28;20245;-78
2022/07/27 09:08:13;;;;;;;2.97;2.78;;;26.40;99.90;;;;;;5040011;28;20215;-78
2022/07/27 09:10:40;;;;;;;2.80;2.60;;;26.40;99.90;;;;;;5039475;28;20244;-77
2022/07/27 09:13:22;;;;;;;2.63;2.42;;;26.20;99.90;;;;;;5042861;28;20219;-77
2022/07/27 09:15:50;;;;;;;2.80;2.60;;;26.10;99.90;;;;;;5046209;28;20238;-78
2022/07/27 09:18:19;;;;;;;3.45;2.80;;;26.10;99.90;;;;;;5048325;28;20230;-77
2022/07/27 09:21:17;;;;;;;2.17;2.05;;;26.10;99.90;;;;;;5048052;28;20373;-78
2022/07/27 09:23:48;;;;;;;2.83;2.45;;;26.20;99.90;;;;;;5039246;28;20487;-77
2022/07/27 09:26:18;;;;;;;2.78;2.58;;;26.50;99.90;;;;;;5051025;28;20198;-77
2022/07/27 09:28:45;;;;;;;3.90;3.00;;;26.60;99.90;;;;;;5040694;28;20223;-76
2022/07/27 09:31:15;;;;;;;2.85;2.60;;;26.50;99.90;;;;;;5051492;28;20194;-78
2022/07/27 09:33:46;;;;;;;3.42;2.80;;;26.50;99.90;;;;;;5048170;28;20237;-77
2022/07/27 09:36:16;;;;;;;3.25;2.72;;;26.60;99.90;;;;;;5054205;28;20187;-77
2022/07/27 09:38:54;;;;;;;2.63;2.42;;;26.90;99.90;;;;;;5043945;28;20515;-77
2022/07/27 09:41:21;;;;;;;3.05;2.70;;;27.00;99.90;;;;;;5045823;28;20198;-77
2022/07/27 09:43:50;;;;;;;3.70;3.05;;;26.90;99.90;;;;;;5043842;28;20298;-78
2022/07/27 09:46:29;;;;;;;3.42;2.70;;;26.80;99.90;;;;;;5051664;28;20650;-77
2022/07/27 09:48:56;;;;;;;2.60;2.40;;;26.60;99.90;;;;;;5044388;28;20226;-77
2022/07/27 09:51:25;;;;;;;2.85;2.65;;;26.60;99.90;;;;;;5049171;28;20295;-77
2022/07/27 09:53:53;;;;;;;2.50;2.30;;;26.70;99.90;;;;;;5040845;28;20740;-77
2022/07/27 09:56:26;;;;;;;2.67;2.47;;;26.70;99.90;;;;;;5123838;22;20694;-76
2022/07/27 09:58:55;;;;;;;3.38;2.92;;;26.90;99.90;;;;;;5046600;28;20219;-79
2022/07/27 10:01:24;;;;;;;2.80;2.42;;;26.80;99.90;;;;;;5052921;28;20665;-75
2022/07/27 10:03:53;;;;;;;3.20;2.90;;;26.80;99.90;;;;;;5048444;28;20593;-74
2022/07/27 10:06:21;;;;;;;2.97;2.78;;;27.00;99.90;;;;;;5051896;28;20206;-75
2022/07/27 10:08:51;;;;;;;3.17;2.88;;;27.20;99.90;;;;;;5048690;28;20715;-76
2022/07/27 10:11:19;;;;;;;3.50;2.65;;;27.70;99.90;;;;;;5047426;28;20191;-75
2022/07/27 10:13:47;;;;;;;2.90;2.70;;;28.10;99.90;;;;;;5043638;28;20214;-75
2022/07/27 10:16:17;;;;;;;3.05;2.75;;;28.30;99.90;;;;;;5044690;28;20207;-73
2022/07/27 10:18:58;;;;;;;3.30;2.90;;;28.40;99.90;;;;;;5050062;28;20284;-75
2022/07/27 10:21:26;;;;;;;3.28;3.00;;;28.50;99.90;;;;;;5047630;28;20831;-76
2022/07/27 10:24:00;;;;;;;2.95;2.75;;;28.40;99.90;;;;;;5046447;28;20592;-76
2022/07/27 10:26:34;;;;;;;3.05;2.75;;;28.20;99.90;;;;;;5045070;28;20211;-75
2022/07/27 10:29:04;;;;;;;2.80;2.60;;;28.10;99.90;;;;;;5044754;28;20215;-74
2022/07/27 10:31:34;;;;;;;3.03;2.72;;;28.10;99.90;;;;;;5046942;28;20199;-75
2022/07/27 10:34:03;;;;;;;2.85;2.65;;;28.10;99.90;;;;;;5026936;28;20693;-75
2022/07/27 10:36:53;;;;;;;2.50;2.30;;;28.20;99.90;;;;;;5046934;28;20219;-78
2022/07/27 10:39:36;;;;;;;3.08;2.78;;;28.40;99.90;;;;;;5047830;28;20225;-75
2022/07/27 10:42:34;;;;;;;4.47;2.30;;;28.40;99.90;;;;;;5045754;28;20229;-77
2022/07/27 10:45:04;;;;;;;2.42;2.22;;;28.50;99.90;;;;;;5001438;28;20326;-79
2022/07/27 10:47:41;;;;;;;2.47;2.28;;;28.80;99.90;;;;;;5041197;28;20214;-77
2022/07/27 10:50:29;;;;;;;2.58;2.28;;;29.00;99.90;;;;;;5051067;28;20739;-76
2022/07/27 10:53:00;;;;;;;2.72;2.53;;;29.10;99.90;;;;;;5047137;28;20444;-76
2022/07/27 10:55:48;;;;;;;2.70;2.50;;;29.20;99.90;;;;;;5049127;28;20231;-76
2022/07/27 10:58:44;;;;;;;2.90;2.40;;;29.20;99.90;;;;;;5046234;28;20223;-77
2022/07/27 11:01:12;;;;;;;2.28;2.17;;;29.10;99.90;;;;;;5044160;28;20191;-77
2022/07/27 11:03:40;;;;;;;2.70;2.50;;;29.00;99.90;;;;;;5041655;28;20299;-80
2022/07/27 11:06:09;;;;;;;3.45;2.30;;;29.10;99.90;;;;;;5038852;28;20210;-77
2022/07/27 11:08:40;;;;;;;2.70;2.50;;;29.40;99.90;;;;;;5045182;28;20222;-78
2022/07/27 11:11:10;;;;;;;2.60;2.40;;;29.40;99.90;;;;;;5049440;28;20191;-76
2022/07/27 11:13:37;;;;;;;2.35;2.25;;;29.30;99.90;;;;;;5047735;28;20258;-77
2022/07/27 11:16:06;;;;;;;2.45;2.25;;;29.40;99.90;;;;;;5048676;28;20214;-76
2022/07/27 11:18:35;;;;;;;2.22;2.13;;;29.50;99.90;;;;;;5048425;28;20890;-76
2022/07/27 11:21:18;;;;;;;3.58;2.25;;;29.70;99.90;;;;;;5050156;28;20194;-75
2022/07/27 11:23:48;;;;;;;2.90;2.60;;;29.80;99.90;;;;;;5046548;28;20620;-75
2022/07/27 11:26:17;;;;;;;2.40;2.30;;;29.60;99.90;;;;;;5050947;28;20693;-76
2022/07/27 11:28:44;;;;;;;2.60;2.40;;;29.30;99.90;;;;;;5048387;28;20219;-77
2022/07/27 11:31:13;;;;;;;2.10;1.90;;;29.20;99.90;;;;;;5051010;28;20196;-75
2022/07/27 11:33:56;;;;;;;2.10;2.00;;;29.20;99.90;;;;;;5044815;28;20318;-74
2022/07/27 11:36:35;;;;;;;2.60;2.22;;;29.50;99.90;;;;;;5044222;28;20218;-75
2022/07/27 11:39:04;;;;;;;2.55;2.35;;;30.00;99.90;;;;;;5041217;28;20319;-76
2022/07/27 11:41:34;;;;;;;2.75;2.55;;;30.30;99.90;;;;;;5042400;28;20203;-75
2022/07/27 11:44:02;;;;;;;2.50;2.30;;;30.50;99.90;;;;;;5039888;28;20222;-75
2022/07/27 11:46:31;;;;;;;2.20;2.00;;;30.50;99.90;;;;;;5035333;28;20222;-77
2022/07/27 11:49:00;;;;;;;2.35;2.17;;;30.70;99.90;;;;;;5037047;28;20226;-75
2022/07/27 11:51:28;;;;;;;2.28;2.08;;;30.80;99.90;;;;;;5036394;28;20207;-74
2022/07/27 11:54:00;;;;;;;2.20;2.00;;;30.90;99.90;;;;;;5041392;28;20704;-76
2022/07/27 11:56:28;;;;;;;2.00;1.90;;;30.60;99.90;;;;;;5043823;28;20268;-78
2022/07/27 11:59:07;;;;;;;2.70;2.50;;;30.60;99.90;;;;;;5045702;28;20291;-77
2022/07/27 12:01:36;;;;;;;2.10;1.90;;;30.30;99.90;;;;;;5043068;28;20218;-75
2022/07/27 12:04:17;;;;;;;2.40;2.15;;;30.00;99.90;;;;;;5040554;28;20211;-76
2022/07/27 12:06:46;;;;;;;2.22;2.03;;;29.70;99.90;;;;;;5040941;28;20276;-76
2022/07/27 12:09:15;;;;;;;1.88;1.77;;;29.40;99.90;;;;;;5040208;28;20574;-75
2022/07/27 12:12:01;;;;;;;2.50;2.30;;;29.30;99.90;;;;;;5040261;28;20202;-75
2022/07/27 12:14:36;;;;;;;2.00;1.90;;;29.70;99.90;;;;;;5039914;28;20225;-74
2022/07/27 12:17:17;;;;;;;2.22;2.13;;;30.30;99.90;;;;;;5037058;28;20226;-75
2022/07/27 12:19:51;;;;;;;2.45;2.25;;;30.70;99.90;;;;;;5038978;28;20253;-76
2022/07/27 12:22:27;;;;;;;2.08;1.98;;;30.90;99.90;;;;;;5040641;28;20229;-75
2022/07/27 12:24:55;;;;;;;2.28;2.17;;;31.10;99.90;;;;;;5039609;28;20219;-75
2022/07/27 12:27:22;;;;;;;2.35;2.13;;;31.10;99.90;;;;;;5044865;28;20215;-76
2022/07/27 12:30:01;;;;;;;2.17;2.08;;;31.20;99.90;;;;;;5038425;28;20199;-76
2022/07/27 12:32:31;;;;;;;2.40;2.20;;;31.40;99.90;;;;;;5038204;28;20226;-75
2022/07/27 12:34:59;;;;;;;2.47;2.35;;;31.20;99.90;;;;;;5041611;28;20888;-75
2022/07/27 12:37:30;;;;;;;2.20;2.00;;;31.20;99.90;;;;;;5040824;28;20226;-75
2022/07/27 12:39:59;;;;;;;2.40;2.20;;;31.30;99.90;;;;;;5041302;28;20198;-74
2022/07/27 12:42:34;;;;;;;2.58;2.38;;;31.40;99.90;;;;;;5038982;28;20245;-76
2022/07/27 12:45:17;;;;;;;2.45;2.25;;;31.70;99.90;;;;;;5042308;28;20218;-75
2022/07/27 12:47:44;;;;;;;2.40;2.20;;;31.90;99.90;;;;;;5037065;28;20226;-74
2022/07/27 12:50:14;;;;;;;2.42;1.83;;;31.70;99.90;;;;;;5039704;28;20485;-75
2022/07/27 12:52:46;;;;;;;2.10;2.00;;;31.80;99.90;;;;;;5037924;28;20250;-75
2022/07/27 12:55:14;;;;;;;2.45;2.05;;;31.60;99.90;;;;;;5038533;28;20706;-76
2022/07/27 12:57:41;;;;;;;2.17;2.00;;;31.80;99.90;;;;;;5042259;28;20215;-74
2022/07/27 13:00:11;;;;;;;2.70;2.22;;;32.00;99.90;;;;;;5040772;28;20205;-75
2022/07/27 13:02:40;;;;;;;2.47;2.28;;;32.10;99.90;;;;;;5040740;28;20214;-75
2022/07/27 13:05:10;;;;;;;2.20;2.10;;;31.60;99.90;;;;;;5038402;28;20617;-74
2022/07/27 13:07:38;;;;;;;1.90;1.80;;;31.70;99.90;;;;;;5039407;28;20299;-75
2022/07/27 13:10:06;;;;;;;2.33;2.13;;;31.90;99.90;;;;;;5041047;28;20695;-76
2022/07/27 13:12:34;;;;;;;2.67;2.30;;;32.10;99.90;;;;;;5041621;28;20744;-74
2022/07/27 13:15:02;;;;;;;2.47;2.13;;;32.10;99.90;;;;;;5038849;28;20223;-77
2022/07/27 13:17:29;;;;;;;2.42;2.22;;;32.10;99.90;;;;;;5037257;28;20290;-77
2022/07/27 13:19:57;;;;;;;2.10;2.00;;;32.00;99.90;;;;;;5041749;28;20203;-75
2022/07/27 13:22:24;;;;;;;2.25;2.13;;;32.20;99.90;;;;;;5037755;28;20230;-75